sensor_id;sensor_type;location;lat;lon;timestamp;pressure;altitude;pressure_sealevel;temperature;humidity
56241;BME280;42155;53.096;23.226;2023-06-14T00:01:06;100113.94;;;15.29;72.64
56241;BME280;42155;53.096;23.226;2023-06-14T00:03:07;100121.66;;;15.33;72.93
56241;BME280;42155;53.096;23.226;2023-06-14T00:05:07;100121.66;;;15.33;72.59
56241;BME280;42155;53.096;23.226;2023-06-14T00:07:08;100088.03;;;15.12;73.03
56241;BME280;42155;53.096;23.226;2023-06-14T00:09:08;100111.09;;;15.13;73.29
56241;BME280;42155;53.096;23.226;2023-06-14T00:11:09;100066.25;;;14.80;73.38
56241;BME280;42155;53.096;23.226;2023-06-14T00:13:09;100085.34;;;14.85;73.95
56241;BME280;42155;53.096;23.226;2023-06-14T00:15:09;100114.53;;;14.96;73.58
56241;BME280;42155;53.096;23.226;2023-06-14T00:17:10;100106.97;;;14.91;73.85
56241;BME280;42155;53.096;23.226;2023-06-14T00:19:10;100105.53;;;14.97;73.81
56241;BME280;42155;53.096;23.226;2023-06-14T00:21:11;100117.06;;;14.97;73.60
56241;BME280;42155;53.096;23.226;2023-06-14T00:23:11;100099.72;;;14.84;74.07
56241;BME280;42155;53.096;23.226;2023-06-14T00:25:11;100106.13;;;14.91;74.04
56241;BME280;42155;53.096;23.226;2023-06-14T00:27:12;100108.97;;;14.89;73.59
56241;BME280;42155;53.096;23.226;2023-06-14T00:29:12;100108.41;;;14.86;73.77
56241;BME280;42155;53.096;23.226;2023-06-14T00:31:12;100078.09;;;14.67;73.53
56241;BME280;42155;53.096;23.226;2023-06-14T00:33:13;100108.16;;;14.79;73.93
56241;BME280;42155;53.096;23.226;2023-06-14T00:35:13;100080.81;;;14.58;73.86
56241;BME280;42155;53.096;23.226;2023-06-14T00:37:14;100106.50;;;14.68;73.94
56241;BME280;42155;53.096;23.226;2023-06-14T00:39:14;100104.81;;;14.67;73.67
56241;BME280;42155;53.096;23.226;2023-06-14T00:41:14;100103.44;;;14.63;74.02
56241;BME280;42155;53.096;23.226;2023-06-14T00:43:15;100100.06;;;14.61;73.77
56241;BME280;42155;53.096;23.226;2023-06-14T00:45:15;100099.13;;;14.52;74.10
56241;BME280;42155;53.096;23.226;2023-06-14T00:47:15;100092.63;;;14.55;74.16
56241;BME280;42155;53.096;23.226;2023-06-14T00:49:17;100094.75;;;14.51;74.26
56241;BME280;42155;53.096;23.226;2023-06-14T00:51:18;100093.22;;;14.49;74.18
56241;BME280;42155;53.096;23.226;2023-06-14T00:53:19;100095.28;;;14.45;74.59
56241;BME280;42155;53.096;23.226;2023-06-14T00:55:19;100091.38;;;14.40;74.66
56241;BME280;42155;53.096;23.226;2023-06-14T00:57:20;100083.81;;;14.35;74.56
56241;BME280;42155;53.096;23.226;2023-06-14T00:59:20;100086.31;;;14.37;74.05
56241;BME280;42155;53.096;23.226;2023-06-14T01:01:20;100095.06;;;14.29;74.07
56241;BME280;42155;53.096;23.226;2023-06-14T01:03:21;100059.84;;;14.16;74.17
56241;BME280;42155;53.096;23.226;2023-06-14T01:05:21;100084.25;;;14.31;74.03
56241;BME280;42155;53.096;23.226;2023-06-14T01:07:43;100087.06;;;14.29;74.11
56241;BME280;42155;53.096;23.226;2023-06-14T01:10:03;100083.84;;;14.25;74.36
56241;BME280;42155;53.096;23.226;2023-06-14T01:12:27;100094.78;;;14.22;74.37
56241;BME280;42155;53.096;23.226;2023-06-14T01:14:30;100090.72;;;14.18;74.38
56241;BME280;42155;53.096;23.226;2023-06-14T01:16:32;100087.22;;;14.18;74.65
56241;BME280;42155;53.096;23.226;2023-06-14T01:18:32;100022.97;;;13.72;74.81
56241;BME280;42155;53.096;23.226;2023-06-14T01:20:34;100090.03;;;14.16;74.73
56241;BME280;42155;53.096;23.226;2023-06-14T01:22:34;100105.06;;;14.17;74.88
56241;BME280;42155;53.096;23.226;2023-06-14T01:24:34;100096.78;;;14.20;74.70
56241;BME280;42155;53.096;23.226;2023-06-14T01:26:35;100101.81;;;14.23;74.96
56241;BME280;42155;53.096;23.226;2023-06-14T01:28:36;100049.88;;;13.98;74.86
56241;BME280;42155;53.096;23.226;2023-06-14T01:30:41;100102.53;;;14.25;75.08
56241;BME280;42155;53.096;23.226;2023-06-14T01:32:42;100096.78;;;14.20;75.04
56241;BME280;42155;53.096;23.226;2023-06-14T01:34:43;100061.97;;;13.93;75.09
56241;BME280;42155;53.096;23.226;2023-06-14T01:36:45;100070.53;;;14.06;75.09
56241;BME280;42155;53.096;23.226;2023-06-14T01:38:46;100077.28;;;14.10;75.55
56241;BME280;42155;53.096;23.226;2023-06-14T01:40:47;100096.47;;;14.23;75.41
56241;BME280;42155;53.096;23.226;2023-06-14T01:42:49;100093.09;;;14.21;75.25
56241;BME280;42155;53.096;23.226;2023-06-14T01:44:52;100062.25;;;13.99;75.56
56241;BME280;42155;53.096;23.226;2023-06-14T01:46:54;100046.97;;;13.92;75.28
56241;BME280;42155;53.096;23.226;2023-06-14T01:48:54;100086.69;;;14.14;75.41
56241;BME280;42155;53.096;23.226;2023-06-14T01:50:54;100086.94;;;14.11;75.58
56241;BME280;42155;53.096;23.226;2023-06-14T01:52:55;100085.56;;;14.07;75.67
56241;BME280;42155;53.096;23.226;2023-06-14T01:54:55;100091.28;;;14.12;75.40
56241;BME280;42155;53.096;23.226;2023-06-14T01:56:56;100092.69;;;14.16;76.00
56241;BME280;42155;53.096;23.226;2023-06-14T01:58:57;100055.25;;;13.89;75.84
56241;BME280;42155;53.096;23.226;2023-06-14T02:00:57;100029.16;;;13.73;75.98
56241;BME280;42155;53.096;23.226;2023-06-14T02:02:58;100095.22;;;14.08;75.87
56241;BME280;42155;53.096;23.226;2023-06-14T02:04:58;100078.81;;;14.03;75.86
56241;BME280;42155;53.096;23.226;2023-06-14T02:06:59;100088.91;;;14.09;75.93
56241;BME280;42155;53.096;23.226;2023-06-14T02:09:00;100083.56;;;14.09;75.72
56241;BME280;42155;53.096;23.226;2023-06-14T02:11:01;100075.16;;;14.04;75.53
56241;BME280;42155;53.096;23.226;2023-06-14T02:13:01;100084.56;;;14.08;75.71
56241;BME280;42155;53.096;23.226;2023-06-14T02:15:02;100087.38;;;14.07;76.20
56241;BME280;42155;53.096;23.226;2023-06-14T02:17:02;100083.16;;;14.04;75.76
56241;BME280;42155;53.096;23.226;2023-06-14T02:19:03;100088.66;;;14.02;75.86
56241;BME280;42155;53.096;23.226;2023-06-14T02:21:03;100075.47;;;14.01;75.83
56241;BME280;42155;53.096;23.226;2023-06-14T02:23:03;100082.75;;;13.99;76.08
56241;BME280;42155;53.096;23.226;2023-06-14T02:25:04;100093.41;;;13.99;76.11
56241;BME280;42155;53.096;23.226;2023-06-14T02:27:04;100054.41;;;13.79;76.25
56241;BME280;42155;53.096;23.226;2023-06-14T02:29:05;100087.50;;;13.95;76.16
56241;BME280;42155;53.096;23.226;2023-06-14T02:31:05;100027.03;;;13.57;76.33
56241;BME280;42155;53.096;23.226;2023-06-14T02:33:06;100082.59;;;13.91;76.22
56241;BME280;42155;53.096;23.226;2023-06-14T02:35:07;100074.59;;;13.91;76.17
56241;BME280;42155;53.096;23.226;2023-06-14T02:37:07;100087.94;;;13.91;76.48
56241;BME280;42155;53.096;23.226;2023-06-14T02:39:11;100081.66;;;13.92;76.55
56241;BME280;42155;53.096;23.226;2023-06-14T02:41:11;100072.94;;;13.90;76.24
56241;BME280;42155;53.096;23.226;2023-06-14T02:43:12;100067.91;;;13.87;76.17
56241;BME280;42155;53.096;23.226;2023-06-14T02:45:12;100083.31;;;13.93;76.14
56241;BME280;42155;53.096;23.226;2023-06-14T02:47:12;100076.31;;;13.92;76.13
56241;BME280;42155;53.096;23.226;2023-06-14T02:49:13;100072.50;;;13.85;76.50
56241;BME280;42155;53.096;23.226;2023-06-14T02:51:13;100081.66;;;13.92;76.17
56241;BME280;42155;53.096;23.226;2023-06-14T02:53:13;100048.78;;;13.72;76.37
56241;BME280;42155;53.096;23.226;2023-06-14T02:55:14;100080.25;;;13.88;76.60
56241;BME280;42155;53.096;23.226;2023-06-14T02:57:14;100079.94;;;13.91;76.14
56241;BME280;42155;53.096;23.226;2023-06-14T02:59:15;100084.16;;;13.93;76.65
56241;BME280;42155;53.096;23.226;2023-06-14T03:01:15;100081.22;;;13.96;76.29
56241;BME280;42155;53.096;23.226;2023-06-14T03:03:16;100086.25;;;13.99;76.19
56241;BME280;42155;53.096;23.226;2023-06-14T03:05:16;100080.78;;;14.01;76.21
56241;BME280;42155;53.096;23.226;2023-06-14T03:07:17;100091.31;;;14.02;76.22
56241;BME280;42155;53.096;23.226;2023-06-14T03:09:17;100078.81;;;14.03;76.63
56241;BME280;42155;53.096;23.226;2023-06-14T03:11:17;100069.53;;;14.07;76.68
56241;BME280;42155;53.096;23.226;2023-06-14T03:13:18;100076.97;;;14.13;76.42
56241;BME280;42155;53.096;23.226;2023-06-14T03:15:18;100074.28;;;14.13;76.62
56241;BME280;42155;53.096;23.226;2023-06-14T03:17:19;100083.28;;;14.22;76.84
56241;BME280;42155;53.096;23.226;2023-06-14T03:19:19;100082.16;;;14.24;76.16
56241;BME280;42155;53.096;23.226;2023-06-14T03:21:20;100080.44;;;14.23;76.73
56241;BME280;42155;53.096;23.226;2023-06-14T03:23:20;100070.88;;;14.31;76.76
56241;BME280;42155;53.096;23.226;2023-06-14T03:25:21;100073.13;;;14.35;76.86
56241;BME280;42155;53.096;23.226;2023-06-14T03:27:21;100047.31;;;14.16;76.48
56241;BME280;42155;53.096;23.226;2023-06-14T03:29:22;100055.03;;;14.29;77.03
56241;BME280;42155;53.096;23.226;2023-06-14T03:31:22;100082.09;;;14.44;76.94
56241;BME280;42155;53.096;23.226;2023-06-14T03:33:22;100084.50;;;14.47;76.32
56241;BME280;42155;53.096;23.226;2023-06-14T03:35:23;100087.59;;;14.52;76.47
56241;BME280;42155;53.096;23.226;2023-06-14T03:37:23;100086.31;;;14.56;77.06
56241;BME280;42155;53.096;23.226;2023-06-14T03:39:24;100077.88;;;14.51;76.47
56241;BME280;42155;53.096;23.226;2023-06-14T03:41:24;100070.84;;;14.50;76.74
56241;BME280;42155;53.096;23.226;2023-06-14T03:43:24;100083.66;;;14.56;76.92
56241;BME280;42155;53.096;23.226;2023-06-14T03:45:25;100090.34;;;14.60;77.15
56241;BME280;42155;53.096;23.226;2023-06-14T03:47:25;100096.81;;;14.67;76.95
56241;BME280;42155;53.096;23.226;2023-06-14T03:49:25;100092.84;;;14.71;77.05
56241;BME280;42155;53.096;23.226;2023-06-14T03:51:26;100097.91;;;14.74;76.45
56241;BME280;42155;53.096;23.226;2023-06-14T03:53:26;100096.59;;;14.78;76.98
56241;BME280;42155;53.096;23.226;2023-06-14T03:55:26;100072.47;;;14.70;76.61
56241;BME280;42155;53.096;23.226;2023-06-14T03:57:27;100096.72;;;14.87;77.05
56241;BME280;42155;53.096;23.226;2023-06-14T03:59:27;100105.00;;;14.93;76.97
56241;BME280;42155;53.096;23.226;2023-06-14T04:01:28;100091.19;;;14.98;76.79
56241;BME280;42155;53.096;23.226;2023-06-14T04:03:28;100080.25;;;14.91;76.61
56241;BME280;42155;53.096;23.226;2023-06-14T04:05:28;100092.28;;;15.05;77.11
56241;BME280;42155;53.096;23.226;2023-06-14T04:07:29;100078.50;;;15.00;76.80
56241;BME280;42155;53.096;23.226;2023-06-14T04:09:29;100092.28;;;15.05;76.89
56241;BME280;42155;53.096;23.226;2023-06-14T04:11:30;100092.81;;;15.09;76.91
56241;BME280;42155;53.096;23.226;2023-06-14T04:13:30;100100.56;;;15.12;77.11
56241;BME280;42155;53.096;23.226;2023-06-14T04:15:31;100095.72;;;15.15;76.83
56241;BME280;42155;53.096;23.226;2023-06-14T04:17:32;100048.19;;;14.91;76.71
56241;BME280;42155;53.096;23.226;2023-06-14T04:19:32;100093.16;;;15.23;77.13
56241;BME280;42155;53.096;23.226;2023-06-14T04:21:33;100102.28;;;15.31;76.97
56241;BME280;42155;53.096;23.226;2023-06-14T04:23:33;100100.28;;;15.33;76.56
56241;BME280;42155;53.096;23.226;2023-06-14T04:25:33;100089.56;;;15.33;76.96
56241;BME280;42155;53.096;23.226;2023-06-14T04:27:34;100088.44;;;15.35;76.63
56241;BME280;42155;53.096;23.226;2023-06-14T04:29:34;100090.97;;;15.37;76.49
56241;BME280;42155;53.096;23.226;2023-06-14T04:31:34;100070.25;;;15.21;76.28
56241;BME280;42155;53.096;23.226;2023-06-14T04:33:35;100090.66;;;15.40;76.15
56241;BME280;42155;53.096;23.226;2023-06-14T04:35:36;100096.78;;;15.50;76.47
56241;BME280;42155;53.096;23.226;2023-06-14T04:37:37;100100.00;;;15.53;76.03
56241;BME280;42155;53.096;23.226;2023-06-14T04:39:37;100088.84;;;15.58;75.83
56241;BME280;42155;53.096;23.226;2023-06-14T04:41:37;100089.34;;;15.62;75.35
56241;BME280;42155;53.096;23.226;2023-06-14T04:43:38;100098.66;;;15.67;75.98
56241;BME280;42155;53.096;23.226;2023-06-14T04:45:38;100093.16;;;15.69;75.15
56241;BME280;42155;53.096;23.226;2023-06-14T04:47:39;100094.06;;;15.77;74.71
56241;BME280;42155;53.096;23.226;2023-06-14T04:49:39;100091.78;;;15.83;74.15
56241;BME280;42155;53.096;23.226;2023-06-14T04:51:39;100095.13;;;15.85;73.97
56241;BME280;42155;53.096;23.226;2023-06-14T04:53:40;100097.78;;;15.85;73.53
56241;BME280;42155;53.096;23.226;2023-06-14T04:55:41;100093.75;;;15.81;73.04
56241;BME280;42155;53.096;23.226;2023-06-14T04:57:41;100099.72;;;15.74;73.11
56241;BME280;42155;53.096;23.226;2023-06-14T04:59:41;100085.59;;;15.64;73.31
56241;BME280;42155;53.096;23.226;2023-06-14T05:01:42;100088.47;;;15.71;72.77
56241;BME280;42155;53.096;23.226;2023-06-14T05:03:42;100095.06;;;15.76;72.78
56241;BME280;42155;53.096;23.226;2023-06-14T05:05:42;100089.38;;;15.79;72.08
56241;BME280;42155;53.096;23.226;2023-06-14T05:07:43;100114.94;;;15.92;72.19
56241;BME280;42155;53.096;23.226;2023-06-14T05:09:44;100091.69;;;15.92;71.26
56241;BME280;42155;53.096;23.226;2023-06-14T05:11:45;100111.41;;;15.91;71.42
56241;BME280;42155;53.096;23.226;2023-06-14T05:13:46;100112.94;;;15.94;71.47
56241;BME280;42155;53.096;23.226;2023-06-14T05:15:46;100099.88;;;15.91;71.08
56241;BME280;42155;53.096;23.226;2023-06-14T05:17:46;100096.97;;;15.84;70.64
56241;BME280;42155;53.096;23.226;2023-06-14T05:19:47;100096.56;;;15.79;70.88
56241;BME280;42155;53.096;23.226;2023-06-14T05:21:47;100115.69;;;16.02;70.24
56241;BME280;42155;53.096;23.226;2023-06-14T05:23:47;100109.66;;;16.00;70.12
56241;BME280;42155;53.096;23.226;2023-06-14T05:25:48;100117.72;;;16.08;69.67
56241;BME280;42155;53.096;23.226;2023-06-14T05:27:48;100123.31;;;16.15;69.30
56241;BME280;42155;53.096;23.226;2023-06-14T05:29:49;100070.44;;;15.91;69.45
56241;BME280;42155;53.096;23.226;2023-06-14T05:31:49;100123.06;;;16.26;69.82
56241;BME280;42155;53.096;23.226;2023-06-14T05:33:50;100129.13;;;16.28;69.21
56241;BME280;42155;53.096;23.226;2023-06-14T05:35:50;100114.44;;;16.14;68.59
56241;BME280;42155;53.096;23.226;2023-06-14T05:37:51;100124.91;;;16.08;68.56
56241;BME280;42155;53.096;23.226;2023-06-14T05:39:51;100117.81;;;15.98;67.85
56241;BME280;42155;53.096;23.226;2023-06-14T05:41:51;100079.91;;;15.85;67.44
56241;BME280;42155;53.096;23.226;2023-06-14T05:43:53;100094.25;;;16.02;67.38
56241;BME280;42155;53.096;23.226;2023-06-14T05:45:54;100114.34;;;16.24;67.38
56241;BME280;42155;53.096;23.226;2023-06-14T05:47:54;100117.94;;;16.33;67.63
56241;BME280;42155;53.096;23.226;2023-06-14T05:49:54;100099.78;;;16.26;66.90
56241;BME280;42155;53.096;23.226;2023-06-14T05:51:55;100124.41;;;16.48;66.69
56241;BME280;42155;53.096;23.226;2023-06-14T05:53:55;100101.53;;;16.36;66.09
56241;BME280;42155;53.096;23.226;2023-06-14T05:55:55;100126.44;;;16.54;65.51
56241;BME280;42155;53.096;23.226;2023-06-14T05:57:56;100099.66;;;16.28;65.54
56241;BME280;42155;53.096;23.226;2023-06-14T05:59:56;100129.75;;;16.48;66.20
56241;BME280;42155;53.096;23.226;2023-06-14T06:01:56;100128.91;;;16.47;66.10
56241;BME280;42155;53.096;23.226;2023-06-14T06:03:57;99902.59;;;15.13;65.36
56241;BME280;42155;53.096;23.226;2023-06-14T06:05:57;100134.94;;;16.49;64.92
56241;BME280;42155;53.096;23.226;2023-06-14T06:07:58;100143.16;;;16.48;65.46
56241;BME280;42155;53.096;23.226;2023-06-14T06:09:58;100141.59;;;16.45;65.60
56241;BME280;42155;53.096;23.226;2023-06-14T06:11:58;100137.41;;;16.43;65.62
56241;BME280;42155;53.096;23.226;2023-06-14T06:13:59;100155.16;;;16.44;65.68
56241;BME280;42155;53.096;23.226;2023-06-14T06:15:59;100159.72;;;16.25;65.54
56241;BME280;42155;53.096;23.226;2023-06-14T06:17:59;100092.06;;;15.79;66.31
56241;BME280;42155;53.096;23.226;2023-06-14T06:20:00;100161.94;;;16.12;66.55
56241;BME280;42155;53.096;23.226;2023-06-14T06:22:00;100157.50;;;16.21;66.53
56241;BME280;42155;53.096;23.226;2023-06-14T06:24:00;100106.59;;;15.95;66.66
56241;BME280;42155;53.096;23.226;2023-06-14T06:26:01;100151.00;;;16.23;67.09
56241;BME280;42155;53.096;23.226;2023-06-14T06:28:01;100117.53;;;16.01;67.56
56241;BME280;42155;53.096;23.226;2023-06-14T06:30:01;100146.66;;;16.22;68.28
56241;BME280;42155;53.096;23.226;2023-06-14T06:32:02;100145.66;;;16.23;68.90
56241;BME280;42155;53.096;23.226;2023-06-14T06:34:02;100145.72;;;16.32;69.18
56241;BME280;42155;53.096;23.226;2023-06-14T06:36:03;100145.38;;;16.35;69.38
56241;BME280;42155;53.096;23.226;2023-06-14T06:38:03;100161.31;;;16.36;68.85
56241;BME280;42155;53.096;23.226;2023-06-14T06:40:03;100152.41;;;16.36;68.60
56241;BME280;42155;53.096;23.226;2023-06-14T06:42:04;100160.31;;;16.37;68.65
56241;BME280;42155;53.096;23.226;2023-06-14T06:44:08;100164.13;;;16.35;68.40
56241;BME280;42155;53.096;23.226;2023-06-14T06:46:08;100166.81;;;16.35;69.35
56241;BME280;42155;53.096;23.226;2023-06-14T06:48:08;100169.03;;;16.39;68.93
56241;BME280;42155;53.096;23.226;2023-06-14T06:50:09;100168.72;;;16.42;69.04
56241;BME280;42155;53.096;23.226;2023-06-14T06:52:09;100165.34;;;16.40;69.00
56241;BME280;42155;53.096;23.226;2023-06-14T06:54:10;100164.22;;;16.43;69.59
56241;BME280;42155;53.096;23.226;2023-06-14T06:56:11;100173.97;;;16.52;69.33
56241;BME280;42155;53.096;23.226;2023-06-14T06:58:12;100171.78;;;16.47;69.20
56241;BME280;42155;53.096;23.226;2023-06-14T07:00:13;100167.56;;;16.45;69.23
56241;BME280;42155;53.096;23.226;2023-06-14T07:02:13;100181.72;;;16.55;68.88
56241;BME280;42155;53.096;23.226;2023-06-14T07:04:13;100197.00;;;16.63;68.67
56241;BME280;42155;53.096;23.226;2023-06-14T07:06:14;100187.94;;;16.64;68.71
56241;BME280;42155;53.096;23.226;2023-06-14T07:08:14;100184.06;;;16.58;67.43
56241;BME280;42155;53.096;23.226;2023-06-14T07:10:14;100181.41;;;16.40;68.64
56241;BME280;42155;53.096;23.226;2023-06-14T07:12:15;100173.19;;;16.34;69.16
56241;BME280;42155;53.096;23.226;2023-06-14T07:14:15;100176.16;;;16.30;69.61
56241;BME280;42155;53.096;23.226;2023-06-14T07:16:16;100132.13;;;16.07;69.54
56241;BME280;42155;53.096;23.226;2023-06-14T07:18:16;100170.19;;;16.37;69.75
56241;BME280;42155;53.096;23.226;2023-06-14T07:20:16;100172.03;;;16.36;69.51
56241;BME280;42155;53.096;23.226;2023-06-14T07:22:17;100154.34;;;16.25;69.28
56241;BME280;42155;53.096;23.226;2023-06-14T07:24:17;100140.28;;;16.23;69.29
56241;BME280;42155;53.096;23.226;2023-06-14T07:26:17;100182.78;;;16.44;68.79
56241;BME280;42155;53.096;23.226;2023-06-14T07:28:18;100182.19;;;16.50;68.81
56241;BME280;42155;53.096;23.226;2023-06-14T07:30:18;100172.22;;;16.61;68.33
56241;BME280;42155;53.096;23.226;2023-06-14T07:32:18;100179.44;;;16.68;68.54
56241;BME280;42155;53.096;23.226;2023-06-14T07:34:19;100179.44;;;16.68;69.31
56241;BME280;42155;53.096;23.226;2023-06-14T07:36:19;100182.81;;;16.70;69.75
56241;BME280;42155;53.096;23.226;2023-06-14T07:38:19;100166.16;;;16.59;70.37
56241;BME280;42155;53.096;23.226;2023-06-14T07:40:20;100176.72;;;16.60;70.41
56241;BME280;42155;53.096;23.226;2023-06-14T07:42:20;100196.63;;;16.75;70.53
56241;BME280;42155;53.096;23.226;2023-06-14T07:44:21;100187.91;;;16.73;70.11
56241;BME280;42155;53.096;23.226;2023-06-14T07:46:21;100188.94;;;16.80;70.09
56241;BME280;42155;53.096;23.226;2023-06-14T07:48:21;100147.94;;;16.62;69.66
56241;BME280;42155;53.096;23.226;2023-06-14T07:50:22;100208.28;;;16.92;69.92
56241;BME280;42155;53.096;23.226;2023-06-14T07:52:22;100194.53;;;16.87;69.78
56241;BME280;42155;53.096;23.226;2023-06-14T07:54:22;100201.41;;;16.90;69.86
56241;BME280;42155;53.096;23.226;2023-06-14T07:56:23;100193.34;;;16.90;69.79
56241;BME280;42155;53.096;23.226;2023-06-14T07:58:23;100198.97;;;17.04;69.40
56241;BME280;42155;53.096;23.226;2023-06-14T08:00:23;100131.28;;;16.76;69.22
56241;BME280;42155;53.096;23.226;2023-06-14T08:02:24;100189.34;;;17.20;68.62
56241;BME280;42155;53.096;23.226;2023-06-14T08:04:24;100192.38;;;17.33;68.38
56241;BME280;42155;53.096;23.226;2023-06-14T08:06:24;100190.44;;;17.43;67.98
56241;BME280;42155;53.096;23.226;2023-06-14T08:08:25;100190.81;;;17.56;67.95
56241;BME280;42155;53.096;23.226;2023-06-14T08:10:25;100193.03;;;17.69;66.27
56241;BME280;42155;53.096;23.226;2023-06-14T08:12:25;100180.44;;;17.70;66.51
56241;BME280;42155;53.096;23.226;2023-06-14T08:14:26;100180.00;;;17.83;65.19
56241;BME280;42155;53.096;23.226;2023-06-14T08:16:26;100184.09;;;18.03;65.22
56241;BME280;42155;53.096;23.226;2023-06-14T08:18:26;100168.78;;;18.20;64.69
56241;BME280;42155;53.096;23.226;2023-06-14T08:20:26;100180.72;;;18.42;64.32
56241;BME280;42155;53.096;23.226;2023-06-14T08:22:27;100180.88;;;18.48;62.88
56241;BME280;42155;53.096;23.226;2023-06-14T08:24:27;100174.50;;;18.49;61.89
56241;BME280;42155;53.096;23.226;2023-06-14T08:26:27;100170.31;;;18.63;61.57
56241;BME280;42155;53.096;23.226;2023-06-14T08:28:28;100169.28;;;18.80;60.65
56241;BME280;42155;53.096;23.226;2023-06-14T08:30:28;100145.75;;;18.82;60.10
56241;BME280;42155;53.096;23.226;2023-06-14T08:32:28;100169.97;;;19.22;59.05
56241;BME280;42155;53.096;23.226;2023-06-14T08:34:29;100166.41;;;19.38;58.93
56241;BME280;42155;53.096;23.226;2023-06-14T08:36:29;100161.94;;;19.53;58.90
56241;BME280;42155;53.096;23.226;2023-06-14T08:38:29;100159.81;;;19.79;58.92
56241;BME280;42155;53.096;23.226;2023-06-14T08:40:30;100161.97;;;19.84;57.98
56241;BME280;42155;53.096;23.226;2023-06-14T08:42:32;100163.28;;;19.88;58.20
56241;BME280;42155;53.096;23.226;2023-06-14T08:44:33;100145.81;;;20.07;57.73
56241;BME280;42155;53.096;23.226;2023-06-14T08:46:34;100164.41;;;20.40;56.02
56241;BME280;42155;53.096;23.226;2023-06-14T08:48:37;100164.09;;;20.57;55.55
56241;BME280;42155;53.096;23.226;2023-06-14T08:50:39;100130.19;;;20.40;54.95
56241;BME280;42155;53.096;23.226;2023-06-14T08:52:45;100162.88;;;20.60;54.88
56241;BME280;42155;53.096;23.226;2023-06-14T08:54:48;100156.09;;;20.64;54.61
56241;BME280;42155;53.096;23.226;2023-06-14T08:56:48;100158.03;;;20.70;54.61
56241;BME280;42155;53.096;23.226;2023-06-14T08:58:49;100149.78;;;20.72;55.02
56241;BME280;42155;53.096;23.226;2023-06-14T09:00:50;100135.38;;;20.79;55.40
56241;BME280;42155;53.096;23.226;2023-06-14T09:02:51;100090.63;;;20.70;54.01
56241;BME280;42155;53.096;23.226;2023-06-14T09:04:51;100071.47;;;20.65;53.49
56241;BME280;42155;53.096;23.226;2023-06-14T09:06:52;100156.13;;;21.23;52.35
56241;BME280;42155;53.096;23.226;2023-06-14T09:08:54;100149.06;;;21.37;52.40
56241;BME280;42155;53.096;23.226;2023-06-14T09:10:55;100147.25;;;21.59;51.07
56241;BME280;42155;53.096;23.226;2023-06-14T09:12:55;100145.69;;;21.71;50.78
56241;BME280;42155;53.096;23.226;2023-06-14T09:14:55;100113.16;;;21.79;50.08
56241;BME280;42155;53.096;23.226;2023-06-14T09:16:56;100117.63;;;21.87;48.64
56241;BME280;42155;53.096;23.226;2023-06-14T09:18:56;100134.66;;;21.88;49.25
56241;BME280;42155;53.096;23.226;2023-06-14T09:20:58;100123.06;;;21.94;49.06
56241;BME280;42155;53.096;23.226;2023-06-14T09:23:00;100100.69;;;22.21;49.69
56241;BME280;42155;53.096;23.226;2023-06-14T09:25:01;100131.69;;;22.81;48.61
56241;BME280;42155;53.096;23.226;2023-06-14T09:27:05;100121.31;;;22.85;47.69
56241;BME280;42155;53.096;23.226;2023-06-14T09:29:06;100116.25;;;22.75;47.17
56241;BME280;42155;53.096;23.226;2023-06-14T09:31:07;100120.78;;;22.68;46.75
56241;BME280;42155;53.096;23.226;2023-06-14T09:33:07;100122.50;;;22.76;47.38
56241;BME280;42155;53.096;23.226;2023-06-14T09:35:08;100113.13;;;22.78;46.74
56241;BME280;42155;53.096;23.226;2023-06-14T09:37:08;100113.91;;;22.94;47.08
56241;BME280;42155;53.096;23.226;2023-06-14T09:39:09;100121.91;;;23.15;46.23
56241;BME280;42155;53.096;23.226;2023-06-14T09:41:09;100120.69;;;23.24;45.04
56241;BME280;42155;53.096;23.226;2023-06-14T09:43:09;100120.28;;;23.27;46.13
56241;BME280;42155;53.096;23.226;2023-06-14T09:45:11;100104.94;;;23.34;45.32
56241;BME280;42155;53.096;23.226;2023-06-14T09:47:12;100127.81;;;23.32;45.38
56241;BME280;42155;53.096;23.226;2023-06-14T09:49:12;100114.81;;;23.14;44.85
56241;BME280;42155;53.096;23.226;2023-06-14T09:51:13;100117.31;;;23.09;44.79
56241;BME280;42155;53.096;23.226;2023-06-14T09:53:16;100126.53;;;23.28;44.63
56241;BME280;42155;53.096;23.226;2023-06-14T09:55:21;100092.25;;;22.94;45.08
56241;BME280;42155;53.096;23.226;2023-06-14T09:57:22;100072.97;;;22.75;45.66
56241;BME280;42155;53.096;23.226;2023-06-14T09:59:26;100128.13;;;23.09;44.98
56241;BME280;42155;53.096;23.226;2023-06-14T10:01:30;100126.69;;;23.13;44.11
56241;BME280;42155;53.096;23.226;2023-06-14T10:03:31;100118.59;;;23.20;44.55
56241;BME280;42155;53.096;23.226;2023-06-14T10:05:35;100127.81;;;23.32;44.30
56241;BME280;42155;53.096;23.226;2023-06-14T10:08:10;100089.91;;;23.25;44.74
56241;BME280;42155;53.096;23.226;2023-06-14T10:10:12;100115.75;;;23.34;44.82
56241;BME280;42155;53.096;23.226;2023-06-14T10:12:12;100117.81;;;23.32;44.34
56241;BME280;42155;53.096;23.226;2023-06-14T10:14:13;100110.28;;;23.21;45.20
56241;BME280;42155;53.096;23.226;2023-06-14T10:18:22;100110.28;;;23.21;45.32
56241;BME280;42155;53.096;23.226;2023-06-14T10:20:33;100108.63;;;23.27;43.93
56241;BME280;42155;53.096;23.226;2023-06-14T10:22:39;100110.91;;;23.23;45.40
56241;BME280;42155;53.096;23.226;2023-06-14T10:24:44;100107.81;;;23.26;45.99
56241;BME280;42155;53.096;23.226;2023-06-14T10:26:53;100104.50;;;23.31;45.60